sensor_id;sensor_type;location;lat;lon;timestamp;temperature;humidity
45619;DHT22;31343;47.520;19.144;2023-03-05T00:01:41;3.40;99.90
45619;DHT22;31343;47.520;19.144;2023-03-05T00:04:11;3.40;99.90
45619;DHT22;31343;47.520;19.144;2023-03-05T00:06:37;3.20;99.90
45619;DHT22;31343;47.520;19.144;2023-03-05T00:09:04;3.20;99.90
45619;DHT22;31343;47.520;19.144;2023-03-05T00:11:31;3.20;99.90
45619;DHT22;31343;47.520;19.144;2023-03-05T00:13:59;3.30;99.90
45619;DHT22;31343;47.520;19.144;2023-03-05T00:16:26;3.30;99.90
45619;DHT22;31343;47.520;19.144;2023-03-05T00:18:53;3.20;99.90
45619;DHT22;31343;47.520;19.144;2023-03-05T00:23:54;3.20;99.90
45619;DHT22;31343;47.520;19.144;2023-03-05T00:26:23;3.30;99.90
45619;DHT22;31343;47.520;19.144;2023-03-05T00:28:49;3.30;99.90
45619;DHT22;31343;47.520;19.144;2023-03-05T00:31:21;3.30;99.90
45619;DHT22;31343;47.520;19.144;2023-03-05T00:33:51;3.20;99.90
45619;DHT22;31343;47.520;19.144;2023-03-05T00:36:17;3.20;99.90
45619;DHT22;31343;47.520;19.144;2023-03-05T00:38:43;3.20;99.90
45619;DHT22;31343;47.520;19.144;2023-03-05T00:41:08;3.20;99.90
45619;DHT22;31343;47.520;19.144;2023-03-05T00:43:35;3.10;99.90
45619;DHT22;31343;47.520;19.144;2023-03-05T00:46:02;3.20;99.90
45619;DHT22;31343;47.520;19.144;2023-03-05T00:48:27;3.20;99.90
45619;DHT22;31343;47.520;19.144;2023-03-05T00:50:53;3.10;99.90
45619;DHT22;31343;47.520;19.144;2023-03-05T00:53:20;3.00;99.90
45619;DHT22;31343;47.520;19.144;2023-03-05T00:55:46;3.00;99.90
45619;DHT22;31343;47.520;19.144;2023-03-05T00:58:12;3.10;99.90
45619;DHT22;31343;47.520;19.144;2023-03-05T01:00:37;3.20;99.90
45619;DHT22;31343;47.520;19.144;2023-03-05T01:03:03;3.20;99.90
45619;DHT22;31343;47.520;19.144;2023-03-05T01:05:29;3.20;99.90
45619;DHT22;31343;47.520;19.144;2023-03-05T01:07:55;3.00;99.90
45619;DHT22;31343;47.520;19.144;2023-03-05T01:10:22;2.90;99.90
45619;DHT22;31343;47.520;19.144;2023-03-05T01:12:51;2.80;99.90
45619;DHT22;31343;47.520;19.144;2023-03-05T01:15:18;2.80;99.90
45619;DHT22;31343;47.520;19.144;2023-03-05T01:17:45;2.90;99.90
45619;DHT22;31343;47.520;19.144;2023-03-05T01:20:13;2.90;99.90
45619;DHT22;31343;47.520;19.144;2023-03-05T01:22:39;3.00;99.90
45619;DHT22;31343;47.520;19.144;2023-03-05T01:25:05;3.00;99.90
45619;DHT22;31343;47.520;19.144;2023-03-05T01:27:31;3.10;99.90
45619;DHT22;31343;47.520;19.144;2023-03-05T01:29:57;3.10;99.90
45619;DHT22;31343;47.520;19.144;2023-03-05T01:32:23;3.30;99.90
45619;DHT22;31343;47.520;19.144;2023-03-05T01:34:48;3.40;99.90
45619;DHT22;31343;47.520;19.144;2023-03-05T01:37:15;3.50;99.90
45619;DHT22;31343;47.520;19.144;2023-03-05T01:39:41;3.50;99.90
45619;DHT22;31343;47.520;19.144;2023-03-05T01:42:07;3.60;99.90
45619;DHT22;31343;47.520;19.144;2023-03-05T01:44:33;3.60;99.90
45619;DHT22;31343;47.520;19.144;2023-03-05T01:47:00;3.70;99.90
45619;DHT22;31343;47.520;19.144;2023-03-05T01:49:28;3.50;99.90
45619;DHT22;31343;47.520;19.144;2023-03-05T01:57:27;3.60;99.90
45619;DHT22;31343;47.520;19.144;2023-03-05T01:59:58;3.50;99.90
45619;DHT22;31343;47.520;19.144;2023-03-05T02:02:25;3.50;99.90
45619;DHT22;31343;47.520;19.144;2023-03-05T02:04:56;3.50;99.90
45619;DHT22;31343;47.520;19.144;2023-03-05T02:07:23;3.40;99.90
45619;DHT22;31343;47.520;19.144;2023-03-05T02:09:49;3.40;99.90
45619;DHT22;31343;47.520;19.144;2023-03-05T02:12:16;3.40;99.90
45619;DHT22;31343;47.520;19.144;2023-03-05T02:14:44;3.30;99.90
45619;DHT22;31343;47.520;19.144;2023-03-05T02:17:11;3.30;99.90
45619;DHT22;31343;47.520;19.144;2023-03-05T02:19:52;3.30;99.90
45619;DHT22;31343;47.520;19.144;2023-03-05T02:22:20;3.30;99.90
45619;DHT22;31343;47.520;19.144;2023-03-05T02:24:47;3.30;99.90
45619;DHT22;31343;47.520;19.144;2023-03-05T02:27:14;3.30;99.90
45619;DHT22;31343;47.520;19.144;2023-03-05T02:29:43;3.30;99.90
45619;DHT22;31343;47.520;19.144;2023-03-05T02:32:10;3.30;99.90
45619;DHT22;31343;47.520;19.144;2023-03-05T02:34:36;3.40;99.90
45619;DHT22;31343;47.520;19.144;2023-03-05T02:37:02;3.30;99.90
45619;DHT22;31343;47.520;19.144;2023-03-05T02:39:30;3.20;99.90
45619;DHT22;31343;47.520;19.144;2023-03-05T02:41:56;3.30;99.90
45619;DHT22;31343;47.520;19.144;2023-03-05T02:44:21;3.30;99.90
45619;DHT22;31343;47.520;19.144;2023-03-05T02:46:47;3.30;99.90
45619;DHT22;31343;47.520;19.144;2023-03-05T02:49:13;3.40;99.90
45619;DHT22;31343;47.520;19.144;2023-03-05T02:51:39;3.30;99.90
45619;DHT22;31343;47.520;19.144;2023-03-05T02:54:06;3.30;99.90
45619;DHT22;31343;47.520;19.144;2023-03-05T02:56:31;3.30;99.90
45619;DHT22;31343;47.520;19.144;2023-03-05T02:58:57;3.40;99.90
45619;DHT22;31343;47.520;19.144;2023-03-05T03:01:23;3.30;99.90
45619;DHT22;31343;47.520;19.144;2023-03-05T03:03:52;3.20;99.90
45619;DHT22;31343;47.520;19.144;2023-03-05T03:06:18;3.20;99.90
45619;DHT22;31343;47.520;19.144;2023-03-05T03:08:43;3.20;99.90
45619;DHT22;31343;47.520;19.144;2023-03-05T03:11:10;3.30;99.90
45619;DHT22;31343;47.520;19.144;2023-03-05T03:13:39;3.40;99.90
45619;DHT22;31343;47.520;19.144;2023-03-05T03:16:08;3.30;99.90
45619;DHT22;31343;47.520;19.144;2023-03-05T03:18:34;3.20;99.90
45619;DHT22;31343;47.520;19.144;2023-03-05T03:21:01;3.20;99.90
45619;DHT22;31343;47.520;19.144;2023-03-05T03:23:27;3.20;99.90
45619;DHT22;31343;47.520;19.144;2023-03-05T03:25:53;3.30;99.90
45619;DHT22;31343;47.520;19.144;2023-03-05T03:28:19;3.20;99.90
45619;DHT22;31343;47.520;19.144;2023-03-05T03:30:45;3.20;99.90
45619;DHT22;31343;47.520;19.144;2023-03-05T03:33:10;3.30;99.90
45619;DHT22;31343;47.520;19.144;2023-03-05T03:35:36;3.40;99.90
45619;DHT22;31343;47.520;19.144;2023-03-05T03:38:03;3.40;99.90
45619;DHT22;31343;47.520;19.144;2023-03-05T03:40:29;3.50;99.90
45619;DHT22;31343;47.520;19.144;2023-03-05T03:42:55;3.50;99.90
45619;DHT22;31343;47.520;19.144;2023-03-05T03:45:21;3.50;99.90
45619;DHT22;31343;47.520;19.144;2023-03-05T03:47:50;3.50;99.90
45619;DHT22;31343;47.520;19.144;2023-03-05T03:50:17;3.50;99.90
45619;DHT22;31343;47.520;19.144;2023-03-05T03:52:43;3.60;99.90
45619;DHT22;31343;47.520;19.144;2023-03-05T03:55:09;3.60;99.90
45619;DHT22;31343;47.520;19.144;2023-03-05T03:57:35;3.70;99.90
45619;DHT22;31343;47.520;19.144;2023-03-05T04:00:02;3.80;99.90
45619;DHT22;31343;47.520;19.144;2023-03-05T04:02:31;3.80;99.90
45619;DHT22;31343;47.520;19.144;2023-03-05T04:04:57;3.80;99.90
45619;DHT22;31343;47.520;19.144;2023-03-05T04:07:23;3.80;99.90
45619;DHT22;31343;47.520;19.144;2023-03-05T04:09:49;3.80;99.90
45619;DHT22;31343;47.520;19.144;2023-03-05T04:12:14;3.80;99.90
45619;DHT22;31343;47.520;19.144;2023-03-05T04:14:44;3.80;99.90
45619;DHT22;31343;47.520;19.144;2023-03-05T04:17:12;3.80;99.90
45619;DHT22;31343;47.520;19.144;2023-03-05T04:19:38;3.80;99.90
45619;DHT22;31343;47.520;19.144;2023-03-05T04:22:04;3.80;99.90
45619;DHT22;31343;47.520;19.144;2023-03-05T04:24:30;3.70;99.90
45619;DHT22;31343;47.520;19.144;2023-03-05T04:26:56;3.80;99.90
45619;DHT22;31343;47.520;19.144;2023-03-05T04:29:22;3.70;99.90
45619;DHT22;31343;47.520;19.144;2023-03-05T04:31:48;3.70;99.90
45619;DHT22;31343;47.520;19.144;2023-03-05T04:34:14;3.60;99.90
45619;DHT22;31343;47.520;19.144;2023-03-05T04:36:39;3.60;99.90
45619;DHT22;31343;47.520;19.144;2023-03-05T04:39:05;3.70;99.90
45619;DHT22;31343;47.520;19.144;2023-03-05T04:41:31;3.80;99.90
45619;DHT22;31343;47.520;19.144;2023-03-05T04:43:56;3.70;99.90
45619;DHT22;31343;47.520;19.144;2023-03-05T04:46:22;3.70;99.90
45619;DHT22;31343;47.520;19.144;2023-03-05T04:48:48;3.80;99.90
45619;DHT22;31343;47.520;19.144;2023-03-05T04:51:13;3.90;99.90
45619;DHT22;31343;47.520;19.144;2023-03-05T04:53:39;3.90;99.90
45619;DHT22;31343;47.520;19.144;2023-03-05T04:56:05;3.90;99.90
45619;DHT22;31343;47.520;19.144;2023-03-05T04:58:31;3.90;99.90
45619;DHT22;31343;47.520;19.144;2023-03-05T05:01:04;3.90;99.90
45619;DHT22;31343;47.520;19.144;2023-03-05T05:03:30;4.00;99.90
45619;DHT22;31343;47.520;19.144;2023-03-05T05:05:57;3.90;99.90
45619;DHT22;31343;47.520;19.144;2023-03-05T05:08:24;3.90;99.90
45619;DHT22;31343;47.520;19.144;2023-03-05T05:11:02;3.90;99.90
45619;DHT22;31343;47.520;19.144;2023-03-05T05:13:29;3.90;99.90
45619;DHT22;31343;47.520;19.144;2023-03-05T05:15:55;3.80;99.90
45619;DHT22;31343;47.520;19.144;2023-03-05T05:18:22;3.70;99.90
45619;DHT22;31343;47.520;19.144;2023-03-05T05:20:48;3.90;99.90
45619;DHT22;31343;47.520;19.144;2023-03-05T05:23:14;3.90;99.90
45619;DHT22;31343;47.520;19.144;2023-03-05T05:25:41;4.00;99.90
45619;DHT22;31343;47.520;19.144;2023-03-05T05:28:09;4.00;99.90
45619;DHT22;31343;47.520;19.144;2023-03-05T05:30:35;4.10;99.90
45619;DHT22;31343;47.520;19.144;2023-03-05T05:33:01;4.10;99.90
45619;DHT22;31343;47.520;19.144;2023-03-05T05:35:27;4.00;99.90
45619;DHT22;31343;47.520;19.144;2023-03-05T05:37:53;4.10;99.90
45619;DHT22;31343;47.520;19.144;2023-03-05T05:40:19;4.10;99.90
45619;DHT22;31343;47.520;19.144;2023-03-05T05:42:45;4.10;99.90
45619;DHT22;31343;47.520;19.144;2023-03-05T05:45:11;4.10;99.90
45619;DHT22;31343;47.520;19.144;2023-03-05T05:47:37;4.10;99.90
45619;DHT22;31343;47.520;19.144;2023-03-05T05:50:04;4.10;99.90
45619;DHT22;31343;47.520;19.144;2023-03-05T05:52:30;4.20;99.90
45619;DHT22;31343;47.520;19.144;2023-03-05T05:54:56;4.20;99.90
45619;DHT22;31343;47.520;19.144;2023-03-05T05:57:21;4.20;99.90
45619;DHT22;31343;47.520;19.144;2023-03-05T05:59:47;4.20;99.90
45619;DHT22;31343;47.520;19.144;2023-03-05T06:02:13;4.20;99.90
45619;DHT22;31343;47.520;19.144;2023-03-05T06:04:38;4.20;99.90
45619;DHT22;31343;47.520;19.144;2023-03-05T06:07:05;4.20;99.90
45619;DHT22;31343;47.520;19.144;2023-03-05T06:09:34;4.20;99.90
45619;DHT22;31343;47.520;19.144;2023-03-05T06:12:00;4.30;99.90
45619;DHT22;31343;47.520;19.144;2023-03-05T06:14:27;4.20;99.90
45619;DHT22;31343;47.520;19.144;2023-03-05T06:16:53;4.20;99.90
45619;DHT22;31343;47.520;19.144;2023-03-05T06:19:19;4.20;99.90
45619;DHT22;31343;47.520;19.144;2023-03-05T06:21:44;4.30;99.90
45619;DHT22;31343;47.520;19.144;2023-03-05T06:24:11;4.30;99.90
45619;DHT22;31343;47.520;19.144;2023-03-05T06:26:37;4.40;99.90
45619;DHT22;31343;47.520;19.144;2023-03-05T06:29:03;4.40;99.90
45619;DHT22;31343;47.520;19.144;2023-03-05T06:31:29;4.50;99.90
45619;DHT22;31343;47.520;19.144;2023-03-05T06:33:57;4.60;99.90
45619;DHT22;31343;47.520;19.144;2023-03-05T06:36:24;4.60;99.90
45619;DHT22;31343;47.520;19.144;2023-03-05T06:38:51;4.60;99.90
45619;DHT22;31343;47.520;19.144;2023-03-05T06:41:28;4.70;99.90
45619;DHT22;31343;47.520;19.144;2023-03-05T06:43:55;4.70;99.90
45619;DHT22;31343;47.520;19.144;2023-03-05T06:46:24;4.60;99.90
45619;DHT22;31343;47.520;19.144;2023-03-05T06:48:51;4.70;99.90
45619;DHT22;31343;47.520;19.144;2023-03-05T06:51:19;4.70;99.90
45619;DHT22;31343;47.520;19.144;2023-03-05T06:53:46;4.80;99.90
45619;DHT22;31343;47.520;19.144;2023-03-05T06:56:12;4.80;99.90
45619;DHT22;31343;47.520;19.144;2023-03-05T06:58:41;4.90;99.90
45619;DHT22;31343;47.520;19.144;2023-03-05T07:01:08;4.80;99.90
45619;DHT22;31343;47.520;19.144;2023-03-05T07:03:35;4.80;99.90
45619;DHT22;31343;47.520;19.144;2023-03-05T07:06:05;4.90;99.90
45619;DHT22;31343;47.520;19.144;2023-03-05T07:08:32;4.80;99.90
45619;DHT22;31343;47.520;19.144;2023-03-05T07:10:58;4.90;99.90
45619;DHT22;31343;47.520;19.144;2023-03-05T07:13:24;5.00;99.90
45619;DHT22;31343;47.520;19.144;2023-03-05T07:15:49;5.00;99.90
45619;DHT22;31343;47.520;19.144;2023-03-05T07:18:15;5.20;99.90
45619;DHT22;31343;47.520;19.144;2023-03-05T07:20:41;5.10;99.90
45619;DHT22;31343;47.520;19.144;2023-03-05T07:23:07;5.00;99.90
45619;DHT22;31343;47.520;19.144;2023-03-05T07:25:35;5.10;99.90
45619;DHT22;31343;47.520;19.144;2023-03-05T07:28:02;5.20;99.90
45619;DHT22;31343;47.520;19.144;2023-03-05T07:30:28;5.10;99.90
45619;DHT22;31343;47.520;19.144;2023-03-05T07:32:53;5.10;99.90
45619;DHT22;31343;47.520;19.144;2023-03-05T07:35:19;5.10;99.90
45619;DHT22;31343;47.520;19.144;2023-03-05T07:37:45;5.20;99.90
45619;DHT22;31343;47.520;19.144;2023-03-05T07:40:11;5.20;99.90
45619;DHT22;31343;47.520;19.144;2023-03-05T07:42:36;5.20;99.90
45619;DHT22;31343;47.520;19.144;2023-03-05T07:45:03;5.20;99.90
45619;DHT22;31343;47.520;19.144;2023-03-05T07:47:29;5.20;99.90
45619;DHT22;31343;47.520;19.144;2023-03-05T07:49:56;5.30;99.90
45619;DHT22;31343;47.520;19.144;2023-03-05T07:52:22;5.30;99.90
45619;DHT22;31343;47.520;19.144;2023-03-05T07:54:47;5.30;99.90
45619;DHT22;31343;47.520;19.144;2023-03-05T07:57:13;5.10;99.90
45619;DHT22;31343;47.520;19.144;2023-03-05T07:59:39;5.20;99.90
45619;DHT22;31343;47.520;19.144;2023-03-05T08:02:05;5.30;99.90
45619;DHT22;31343;47.520;19.144;2023-03-05T08:04:31;5.30;99.90
45619;DHT22;31343;47.520;19.144;2023-03-05T08:06:58;5.40;99.90
45619;DHT22;31343;47.520;19.144;2023-03-05T08:09:24;5.40;99.90
45619;DHT22;31343;47.520;19.144;2023-03-05T08:11:50;5.50;99.90
45619;DHT22;31343;47.520;19.144;2023-03-05T08:14:15;5.50;99.90
45619;DHT22;31343;47.520;19.144;2023-03-05T08:16:42;5.50;99.90
45619;DHT22;31343;47.520;19.144;2023-03-05T08:19:09;5.50;99.90
45619;DHT22;31343;47.520;19.144;2023-03-05T08:21:35;5.50;99.90
45619;DHT22;31343;47.520;19.144;2023-03-05T08:24:05;5.60;99.90
45619;DHT22;31343;47.520;19.144;2023-03-05T08:26:33;5.60;99.90
45619;DHT22;31343;47.520;19.144;2023-03-05T08:28:59;5.40;99.90
45619;DHT22;31343;47.520;19.144;2023-03-05T08:31:26;5.60;99.90
45619;DHT22;31343;47.520;19.144;2023-03-05T08:33:55;5.70;99.90
45619;DHT22;31343;47.520;19.144;2023-03-05T08:36:21;5.70;99.90
45619;DHT22;31343;47.520;19.144;2023-03-05T08:38:48;5.80;99.90
45619;DHT22;31343;47.520;19.144;2023-03-05T08:41:16;5.80;99.90
45619;DHT22;31343;47.520;19.144;2023-03-05T08:43:43;5.80;99.90
45619;DHT22;31343;47.520;19.144;2023-03-05T08:46:11;5.90;99.90
45619;DHT22;31343;47.520;19.144;2023-03-05T08:48:39;6.00;99.90
45619;DHT22;31343;47.520;19.144;2023-03-05T08:51:31;6.00;99.90
45619;DHT22;31343;47.520;19.144;2023-03-05T08:53:58;6.10;99.90
45619;DHT22;31343;47.520;19.144;2023-03-05T08:56:25;6.20;99.90
45619;DHT22;31343;47.520;19.144;2023-03-05T08:58:53;6.30;99.90
45619;DHT22;31343;47.520;19.144;2023-03-05T09:01:18;6.40;99.90
45619;DHT22;31343;47.520;19.144;2023-03-05T09:03:44;6.50;99.90
45619;DHT22;31343;47.520;19.144;2023-03-05T09:06:10;6.50;99.90
45619;DHT22;31343;47.520;19.144;2023-03-05T09:08:39;6.50;99.90
45619;DHT22;31343;47.520;19.144;2023-03-05T09:11:10;6.50;99.90
45619;DHT22;31343;47.520;19.144;2023-03-05T09:13:36;6.50;99.90
45619;DHT22;31343;47.520;19.144;2023-03-05T09:16:04;6.50;99.90
45619;DHT22;31343;47.520;19.144;2023-03-05T09:18:30;6.50;99.90
45619;DHT22;31343;47.520;19.144;2023-03-05T09:20:56;6.40;99.90
45619;DHT22;31343;47.520;19.144;2023-03-05T09:23:22;6.60;99.90
45619;DHT22;31343;47.520;19.144;2023-03-05T09:25:49;6.80;99.90
45619;DHT22;31343;47.520;19.144;2023-03-05T09:28:16;6.80;99.90
45619;DHT22;31343;47.520;19.144;2023-03-05T09:30:41;6.90;99.90
45619;DHT22;31343;47.520;19.144;2023-03-05T09:33:07;6.90;99.90
45619;DHT22;31343;47.520;19.144;2023-03-05T09:35:35;7.00;99.90
45619;DHT22;31343;47.520;19.144;2023-03-05T09:38:01;7.20;99.90
45619;DHT22;31343;47.520;19.144;2023-03-05T09:40:35;7.30;99.90
45619;DHT22;31343;47.520;19.144;2023-03-05T09:43:18;7.40;99.90
45619;DHT22;31343;47.520;19.144;2023-03-05T09:46:08;7.30;99.90
45619;DHT22;31343;47.520;19.144;2023-03-05T09:51:15;7.60;99.90
45619;DHT22;31343;47.520;19.144;2023-03-05T09:54:22;7.50;99.90
45619;DHT22;31343;47.520;19.144;2023-03-05T09:56:56;7.60;99.90
45619;DHT22;31343;47.520;19.144;2023-03-05T10:01:56;7.90;99.60
45619;DHT22;31343;47.520;19.144;2023-03-05T10:09:59;7.90;99.40
45619;DHT22;31343;47.520;19.144;2023-03-05T10:12:41;8.10;98.90
45619;DHT22;31343;47.520;19.144;2023-03-05T10:15:15;8.00;98.80
45619;DHT22;31343;47.520;19.144;2023-03-05T10:31:19;8.00;99.00
45619;DHT22;31343;47.520;19.144;2023-03-05T10:36:19;7.80;98.30
45619;DHT22;31343;47.520;19.144;2023-03-05T10:39:38;7.80;98.00
45619;DHT22;31343;47.520;19.144;2023-03-05T10:42:14;7.80;98.20
45619;DHT22;31343;47.520;19.144;2023-03-05T10:44:45;7.80;97.90
45619;DHT22;31343;47.520;19.144;2023-03-05T10:47:40;8.10;97.70
45619;DHT22;31343;47.520;19.144;2023-03-05T10:50:01;8.00;97.50
45619;DHT22;31343;47.520;19.144;2023-03-05T10:52:34;7.60;97.80
45619;DHT22;31343;47.520;19.144;2023-03-05T10:55:04;7.80;97.90
45619;DHT22;31343;47.520;19.144;2023-03-05T10:57:37;8.00;97.40
45619;DHT22;31343;47.520;19.144;2023-03-05T11:00:22;8.10;97.20
45619;DHT22;31343;47.520;19.144;2023-03-05T11:03:00;8.20;97.40
45619;DHT22;31343;47.520;19.144;2023-03-05T11:05:47;8.30;96.80
45619;DHT22;31343;47.520;19.144;2023-03-05T11:08:34;8.30;96.40
45619;DHT22;31343;47.520;19.144;2023-03-05T11:11:20;8.50;96.10
45619;DHT22;31343;47.520;19.144;2023-03-05T11:14:00;8.20;96.50
45619;DHT22;31343;47.520;19.144;2023-03-05T11:16:32;8.20;96.70
45619;DHT22;31343;47.520;19.144;2023-03-05T11:19:20;8.30;96.60
45619;DHT22;31343;47.520;19.144;2023-03-05T11:22:14;8.20;96.70
45619;DHT22;31343;47.520;19.144;2023-03-05T11:24:40;8.10;96.60
45619;DHT22;31343;47.520;19.144;2023-03-05T11:27:57;8.00;96.50
45619;DHT22;31343;47.520;19.144;2023-03-05T11:30:28;8.00;96.70
45619;DHT22;31343;47.520;19.144;2023-03-05T11:33:16;7.90;96.70
45619;DHT22;31343;47.520;19.144;2023-03-05T11:35:44;7.80;96.10
45619;DHT22;31343;47.520;19.144;2023-03-05T11:40:45;8.20;96.00
45619;DHT22;31343;47.520;19.144;2023-03-05T11:43:23;8.20;96.10
45619;DHT22;31343;47.520;19.144;2023-03-05T11:45:52;8.20;96.20
45619;DHT22;31343;47.520;19.144;2023-03-05T11:48:29;8.20;96.10
45619;DHT22;31343;47.520;19.144;2023-03-05T11:51:01;8.20;95.80
45619;DHT22;31343;47.520;19.144;2023-03-05T11:53:30;8.30;95.80
45619;DHT22;31343;47.520;19.144;2023-03-05T11:56:12;8.30;96.00
45619;DHT22;31343;47.520;19.144;2023-03-05T11:59:00;8.20;96.00
45619;DHT22;31343;47.520;19.144;2023-03-05T12:01:31;7.90;95.70
45619;DHT22;31343;47.520;19.144;2023-03-05T12:03:57;8.00;96.00
45619;DHT22;31343;47.520;19.144;2023-03-05T12:06:41;8.10;95.90
45619;DHT22;31343;47.520;19.144;2023-03-05T12:09:24;8.20;96.20
45619;DHT22;31343;47.520;19.144;2023-03-05T12:12:29;8.30;95.70
45619;DHT22;31343;47.520;19.144;2023-03-05T12:23:19;7.90;95.20
45619;DHT22;31343;47.520;19.144;2023-03-05T12:25:54;7.90;96.00
45619;DHT22;31343;47.520;19.144;2023-03-05T12:30:55;8.00;95.90
45619;DHT22;31343;47.520;19.144;2023-03-05T12:33:39;8.10;95.50
45619;DHT22;31343;47.520;19.144;2023-03-05T12:38:51;8.40;95.20
45619;DHT22;31343;47.520;19.144;2023-03-05T12:51:54;9.20;93.90
45619;DHT22;31343;47.520;19.144;2023-03-05T12:54:34;9.80;93.20
45619;DHT22;31343;47.520;19.144;2023-03-05T13:00:05;10.70;91.40
45619;DHT22;31343;47.520;19.144;2023-03-05T13:02:41;11.00;89.60
45619;DHT22;31343;47.520;19.144;2023-03-05T13:05:37;11.10;89.80
45619;DHT22;31343;47.520;19.144;2023-03-05T13:08:23;12.00;87.20
45619;DHT22;31343;47.520;19.144;2023-03-05T13:11:01;12.60;84.60
45619;DHT22;31343;47.520;19.144;2023-03-05T13:13:30;13.20;81.70
45619;DHT22;31343;47.520;19.144;2023-03-05T13:15:56;12.80;81.10
45619;DHT22;31343;47.520;19.144;2023-03-05T13:18:27;11.90;81.10
45619;DHT22;31343;47.520;19.144;2023-03-05T13:21:10;11.30;83.70
45619;DHT22;31343;47.520;19.144;2023-03-05T13:23:37;10.60;84.70
45619;DHT22;31343;47.520;19.144;2023-03-05T13:26:18;10.40;86.00
45619;DHT22;31343;47.520;19.144;2023-03-05T13:29:15;9.80;88.10
45619;DHT22;31343;47.520;19.144;2023-03-05T13:34:21;9.40;90.10
45619;DHT22;31343;47.520;19.144;2023-03-05T13:39:33;8.90;90.80
45619;DHT22;31343;47.520;19.144;2023-03-05T13:42:18;8.70;91.20
45619;DHT22;31343;47.520;19.144;2023-03-05T13:47:30;8.30;92.00
45619;DHT22;31343;47.520;19.144;2023-03-05T13:49:58;8.20;92.30
45619;DHT22;31343;47.520;19.144;2023-03-05T13:52:29;8.30;92.30
45619;DHT22;31343;47.520;19.144;2023-03-05T13:55:00;8.30;92.40
45619;DHT22;31343;47.520;19.144;2023-03-05T13:57:41;8.30;92.60
45619;DHT22;31343;47.520;19.144;2023-03-05T14:00:34;8.00;92.60
45619;DHT22;31343;47.520;19.144;2023-03-05T14:03:22;7.90;92.60
45619;DHT22;31343;47.520;19.144;2023-03-05T14:05:49;7.90;92.90
45619;DHT22;31343;47.520;19.144;2023-03-05T14:08:25;7.70;92.10
45619;DHT22;31343;47.520;19.144;2023-03-05T14:10:55;7.60;92.20
45619;DHT22;31343;47.520;19.144;2023-03-05T14:13:25;7.50;92.50
45619;DHT22;31343;47.520;19.144;2023-03-05T14:16:05;7.50;92.40
45619;DHT22;31343;47.520;19.144;2023-03-05T14:18:33;7.40;92.50
45619;DHT22;31343;47.520;19.144;2023-03-05T14:21:09;7.30;92.70
45619;DHT22;31343;47.520;19.144;2023-03-05T14:23:45;7.20;93.10
45619;DHT22;31343;47.520;19.144;2023-03-05T14:26:30;7.20;93.10
45619;DHT22;31343;47.520;19.144;2023-03-05T14:29:03;7.10;93.10
45619;DHT22;31343;47.520;19.144;2023-03-05T14:31:57;7.20;93.40
45619;DHT22;31343;47.520;19.144;2023-03-05T14:36:52;7.20;93.60
45619;DHT22;31343;47.520;19.144;2023-03-05T14:39:43;7.20;93.50
45619;DHT22;31343;47.520;19.144;2023-03-05T14:42:37;7.20;93.80
45619;DHT22;31343;47.520;19.144;2023-03-05T14:45:17;7.20;93.80
45619;DHT22;31343;47.520;19.144;2023-03-05T14:47:43;7.20;93.80
45619;DHT22;31343;47.520;19.144;2023-03-05T14:50:20;7.20;93.90
45619;DHT22;31343;47.520;19.144;2023-03-05T14:52:49;7.30;93.90
45619;DHT22;31343;47.520;19.144;2023-03-05T14:55:18;7.20;93.50
45619;DHT22;31343;47.520;19.144;2023-03-05T14:57:44;7.10;93.60
45619;DHT22;31343;47.520;19.144;2023-03-05T15:00:19;7.20;93.70
45619;DHT22;31343;47.520;19.144;2023-03-05T15:02:45;7.30;93.60
45619;DHT22;31343;47.520;19.144;2023-03-05T15:05:11;7.20;93.20
45619;DHT22;31343;47.520;19.144;2023-03-05T15:07:37;7.10;93.70
45619;DHT22;31343;47.520;19.144;2023-03-05T15:10:04;7.10;93.90
45619;DHT22;31343;47.520;19.144;2023-03-05T15:12:33;7.10;93.80
45619;DHT22;31343;47.520;19.144;2023-03-05T15:14:59;7.20;94.20
45619;DHT22;31343;47.520;19.144;2023-03-05T15:17:35;7.30;93.90
45619;DHT22;31343;47.520;19.144;2023-03-05T15:20:03;7.30;93.70
45619;DHT22;31343;47.520;19.144;2023-03-05T15:22:35;7.30;93.70
45619;DHT22;31343;47.520;19.144;2023-03-05T15:25:02;7.10;93.70
45619;DHT22;31343;47.520;19.144;2023-03-05T15:27:28;7.10;93.90
45619;DHT22;31343;47.520;19.144;2023-03-05T15:29:53;7.20;93.90
45619;DHT22;31343;47.520;19.144;2023-03-05T15:32:19;7.10;94.20
45619;DHT22;31343;47.520;19.144;2023-03-05T15:34:45;7.00;94.10
45619;DHT22;31343;47.520;19.144;2023-03-05T15:37:11;6.90;94.20
45619;DHT22;31343;47.520;19.144;2023-03-05T15:39:36;7.00;94.40
45619;DHT22;31343;47.520;19.144;2023-03-05T15:42:02;7.00;94.00
45619;DHT22;31343;47.520;19.144;2023-03-05T15:44:28;7.00;94.10
45619;DHT22;31343;47.520;19.144;2023-03-05T15:46:54;7.00;94.20
45619;DHT22;31343;47.520;19.144;2023-03-05T15:49:21;7.00;94.40
45619;DHT22;31343;47.520;19.144;2023-03-05T15:51:49;7.00;94.20
45619;DHT22;31343;47.520;19.144;2023-03-05T15:54:15;6.90;94.70
45619;DHT22;31343;47.520;19.144;2023-03-05T15:56:41;6.90;94.60
45619;DHT22;31343;47.520;19.144;2023-03-05T15:59:07;6.80;94.40
45619;DHT22;31343;47.520;19.144;2023-03-05T16:01:37;6.70;94.40
45619;DHT22;31343;47.520;19.144;2023-03-05T16:04:04;6.60;94.50
45619;DHT22;31343;47.520;19.144;2023-03-05T16:06:31;6.60;94.50
45619;DHT22;31343;47.520;19.144;2023-03-05T16:09:01;6.60;94.60
45619;DHT22;31343;47.520;19.144;2023-03-05T16:11:29;6.50;94.80
45619;DHT22;31343;47.520;19.144;2023-03-05T16:13:56;6.40;94.80
45619;DHT22;31343;47.520;19.144;2023-03-05T16:16:24;6.30;94.80
45619;DHT22;31343;47.520;19.144;2023-03-05T16:18:50;6.20;94.70
45619;DHT22;31343;47.520;19.144;2023-03-05T16:21:17;6.10;94.90
45619;DHT22;31343;47.520;19.144;2023-03-05T16:23:43;6.00;95.10
45619;DHT22;31343;47.520;19.144;2023-03-05T16:26:09;6.00;95.00
45619;DHT22;31343;47.520;19.144;2023-03-05T16:28:35;6.10;95.10
45619;DHT22;31343;47.520;19.144;2023-03-05T16:31:01;6.10;94.90
45619;DHT22;31343;47.520;19.144;2023-03-05T16:33:27;6.00;95.00
45619;DHT22;31343;47.520;19.144;2023-03-05T16:36:17;6.00;95.10
45619;DHT22;31343;47.520;19.144;2023-03-05T16:38:48;5.80;95.40
45619;DHT22;31343;47.520;19.144;2023-03-05T16:41:16;5.70;95.10
45619;DHT22;31343;47.520;19.144;2023-03-05T16:43:43;5.70;95.30
45619;DHT22;31343;47.520;19.144;2023-03-05T16:46:09;5.70;95.40
45619;DHT22;31343;47.520;19.144;2023-03-05T16:48:35;5.50;95.10
45619;DHT22;31343;47.520;19.144;2023-03-05T16:51:02;5.60;95.00
45619;DHT22;31343;47.520;19.144;2023-03-05T16:53:29;5.60;95.20
45619;DHT22;31343;47.520;19.144;2023-03-05T16:55:55;5.50;95.20
45619;DHT22;31343;47.520;19.144;2023-03-05T16:58:21;5.50;94.70
45619;DHT22;31343;47.520;19.144;2023-03-05T17:00:47;5.50;94.80